ASN logo
Last updated: 13 August 2020
Statuts:Enquête Officielle
Date:jeudi 16 août 2018
Heure:23:55
Type/Sous-type:Silhouette image of generic B738 model; specific model in this crash may look slightly different
Boeing 737-85C (WL)
Compagnie:Xiamen Airlines
Immatriculation: B-5498
Numéro de série: 37574/3160
Année de Fabrication: 2010-01-14 (8 years 7 months)
Moteurs: 2 CFMI CFM56-7B24
Equipage:victimes: 0 / à bord: 8
Passagers:victimes: 0 / à bord: 157
Total:victimes: 0 / à bord: 165
Dégats de l'appareil: Substantiels
Lieu de l'accident:Manila-Ninoy Aquino International Airport (MNL) (   Philippines)
Phase de vol: A l'atterrissage (LDG)
Nature:Transport de Passagers Intern.
Aéroport de départ:Xiamen Airport (XMN/ZSAM), Chine
Aéroport de destination:Manila-Ninoy Aquino International Airport (MNL/RPLL), Philippines
Numéro de vol:MF8667
Détails:
Xiamen Airlines flight 8667, suffered a runway excursion after landing on runway 24 at Manila-Ninoy Aquino International Airport, Philippines. There were no injuries according to the airline.
At 23:08 hours local time the flight had descended to FL180 towards Manila. It entered a holding pattern to the north-east of the airport for about 14 minutes before positioning for an approach to runway 24. The approach was aborted at 23:40 and the aircraft position for another approach. The aircraft touched down at 23:55 but went off the runway.
At the time of the accident a thunderstorm was passing the airport.

Photos from the scene seem to indicate that the no.1 (left hand) engine had separated from the wing after the excursion.

Probable Cause:

Primary Cause Factors
a. The decision of the Captain to continue the landing on un-stabilized approach and insufficient visual reference.
- The Captain failed to maintain a stabilized landing approach moments before touchdown, the aircraft was rolling left and continuously drifting left of the runway centerline.
- The Captain failed to identify correctly the aircraft position and status due to insufficient visual reference caused by precipitation.
b. The Captain failed to apply sound CRM practices.
- The Captain did not heed to the First Officer call for a Go-Around.
Contributory Factors
a. Failure to apply appropriate TEM strategies
Failure of the Flight Crew to discuss and apply appropriate Threat and Error Management (TEM) strategies for the following:
- Inclement weather.
- Cross wind conditions during approach to land.
- Possibility of low-level wind shear.
- NOTAM information on unserviceable runway lights.
b. Inadequate Company Policy on Go-Around
- Company’s Standard Operation Procedures were less than adequate in terms of providing guidance to the flight crew for call out of "Go-Around" during landing phase of the flight.
c. Runway strip inconsistent with CAAP MOS for Aerodrome and ICAO Annex 14
- The uneven surface and concrete obstacles contributed to the damage sustained by the aircraft

Sources:
» Accident report summary

METAR Weather report:
UTC / local time:
RPLL 161619Z 26007KT 6000 -RA BKN020 OVC080 24/24 Q1006 NOSIG RMK A2971

14:00 UTC / 22:00 local time:
RPLL 161400Z 22007KT 140V260 7000 -RA SCT022 OVC090 26/26 NOSIG RMK A2971

14:35 UTC / 22:35 local time:
RPLL 161435Z 27021KT 3000 +RA SCT022 OVC090 25/25 Q1006 TEMPO FM1500 6000 RA RMK A2971

15:00 UTC / 23:00 local time:
RPLL 161500Z 25017KT 2500 +TSRA FEW020CB BKN022 OVC080 24/24 Q1007 TEMPO 5000 TSRA 2974 CB OHD

16:00 UTC / 00:00 local time:
RPLL 161600Z 28011KT 250V310 2000 +TSRA FEW018CB BKN020 OVC080 24/24 Q1007 TEMPO 5000 TSRA RMK A2974 CB OHD
Wind 280°, varying 250-310° at 11 kts; visibility 2000 m; Thunderstorm with rain; Few Cumulonimbus clouds at 1800 feet; Broken clouds at 2000 feet; Overcast at 8000 feet; Temperature 24°C; Dew point 24°C; QNH 1007 mb


Opérations de secours

issued 2 Notice to Airmen (Notam)s
AAIIB issued 5 Safety Recommendations

Show all...

Photos

photo of Boeing-737-85C-B-5498
accident date: 16-08-2018
type: Boeing 737-85C (WL)
registration: B-5498
photo of Boeing-737-85C-B-5498
accident date: 16-08-2018
type: Boeing 737-85C (WL)
registration: B-5498
photo of Boeing-737-85C-B-5498
accident date: 16-08-2018
type: Boeing 737-85C (WL)
registration: B-5498
photo of Boeing-737-85C-B-5498
photo of Boeing-737-85C-
Weather satellite image at 23:50 LT, five minutes before the accident
 

Video, social media

Plan
Ce plan montre l'aéroport de départ ainsi que la supposée destination du vol. La ligne fixe reliant les deux aéroports n'est pas le plan de vol exact.
La distance entre Xiamen Airport et Manila-Ninoy Aquino International Airport est de 1149 km (718 miles).
Accident location: Exact; as reported in the official accident report.

Les informations ci-dessus ne représentent pas l'opinion de la 'Flight Safety Foundation' ou de 'Aviation Safety Network' sur les causes de l'accident. Ces informations prélimimaires sont basées sur les faits tel qu'ils sont connus à ce jour.
languages: languages

Share

  • built
  • 14ème loss
» safety profile